EHDL

Deelen Air Base Airport

Arnhem, The Netherlands
METAR EHDL 222125Z AUTO VRB02KT 1800 BR OVC140 14/14 Q1010 YLO
Observed Flight Rules
Apr-22 @ 21:25 UTC (22 minutes ago) Instrument Flight Rules
Wind Visibility Clouds Conditions
Variable at 2 knots 1,802 meters
  • Overcast at 14,000' AGL
  • Mist
Temperatures Readings
Current 14°C / 57°F
Dewpoint 14°C / 57°F
Humidity 100%
Altimeter 29.82" Hg
Pressure 1010 hPa
Elevation 52
METAR EHDL 222125Z AUTO VRB02KT 1800 BR OVC140 14/14 Q1010 YLO
Observed Flight Rules
Apr-22 @ 21:25 UTC
(22 minutes ago)
IFR
Wind Visibility
Variable at 2 knots 1,802 meters
Clouds
  • Overcast at 14,000' AGL
Conditions
  • Mist
Temperature Dewpoint
14°C / 57°F 14°C / 57°F
Humidity Altimeter Pressure
100% 29.82" Hg 1010 hPa